createdAt,value
2023-02-17T00:04:26.175Z,107.87
2023-02-17T00:09:28.868Z,102.43
2023-02-17T00:14:32.786Z,114.55
2023-02-17T00:19:35.258Z,111.40
2023-02-17T00:24:39.661Z,109.87
2023-02-17T00:29:43.553Z,104.03
2023-02-17T00:34:46.195Z,102.55
2023-02-17T00:39:48.765Z,114.63
2023-02-17T00:44:52.590Z,108.78
2023-02-17T00:49:55.102Z,108.78
2023-02-17T00:54:57.628Z,103.20
2023-02-17T01:00:01.422Z,102.68
2023-02-17T01:05:04.001Z,106.97
2023-02-17T01:10:07.708Z,105.53
2023-02-17T01:15:12.288Z,102.27
2023-02-17T01:20:15.246Z,110.75
2023-02-17T01:25:17.858Z,109.45
2023-02-17T01:30:22.023Z,107.10
2023-02-17T01:35:24.621Z,111.68
2023-02-17T01:40:27.217Z,114.75
2023-02-17T01:45:42.882Z,115.30
2023-02-17T01:50:48.016Z,111.72
2023-02-17T01:55:51.102Z,103.38
2023-02-17T02:01:00.385Z,108.60
2023-02-17T02:06:07.292Z,101.50
2023-02-17T02:11:09.920Z,100.72
2023-02-17T02:16:21.251Z,100.57
2023-02-17T02:21:52.331Z,97.63
2023-02-17T02:27:19.185Z,97.30
2023-02-17T02:32:40.519Z,91.70
2023-02-17T02:37:51.299Z,95.03
2023-02-17T02:42:55.350Z,96.03
2023-02-17T02:48:00.064Z,97.32
2023-02-17T02:53:24.488Z,101.63
2023-02-17T02:58:34.110Z,89.70
2023-02-17T03:03:47.843Z,89.22
2023-02-17T03:08:54.883Z,86.13
2023-02-17T03:14:01.985Z,85.17
2023-02-17T03:19:06.086Z,83.13
2023-02-17T03:24:09.583Z,90.53
2023-02-17T03:29:12.297Z,85.00
2023-02-17T03:34:16.206Z,84.53
2023-02-17T03:39:18.692Z,84.10
2023-02-17T03:44:21.342Z,77.87
2023-02-17T03:49:25.240Z,81.53
2023-02-17T03:54:28.291Z,81.45
2023-02-17T03:59:31.129Z,79.80
2023-02-17T04:04:36.221Z,77.83
2023-02-17T04:09:38.726Z,83.85
2023-02-17T04:14:41.220Z,86.53
2023-02-17T04:19:45.082Z,82.33
2023-02-17T04:24:47.573Z,81.15
2023-02-17T04:29:50.068Z,87.57
2023-02-17T04:34:53.874Z,82.70
2023-02-17T04:39:56.418Z,85.20
2023-02-17T04:44:58.905Z,94.85
2023-02-17T04:50:02.773Z,103.13
2023-02-17T04:55:06.248Z,95.20
2023-02-17T05:00:10.560Z,98.15
2023-02-17T05:05:15.214Z,86.50
2023-02-17T05:10:19.260Z,88.43
2023-02-17T05:15:21.775Z,91.75
2023-02-17T05:20:25.587Z,99.82
2023-02-17T05:25:28.137Z,85.30
2023-02-17T05:30:30.703Z,92.67
2023-02-17T05:35:36.488Z,92.90
2023-02-17T05:40:39.017Z,89.68
2023-02-17T05:45:41.501Z,84.97
2023-02-17T05:50:45.468Z,87.63
2023-02-17T05:55:48.849Z,80.82
2023-02-17T06:00:51.431Z,76.83
2023-02-17T06:05:55.263Z,86.25
2023-02-17T06:10:57.971Z,76.75
2023-02-17T06:16:01.810Z,75.00
2023-02-17T06:21:06.311Z,70.53
2023-02-17T06:26:08.919Z,72.88
2023-02-17T06:31:11.604Z,73.72
2023-02-17T06:36:15.548Z,68.77
2023-02-17T06:41:18.059Z,66.78
2023-02-17T06:46:20.558Z,71.93
2023-02-17T06:51:24.404Z,70.57
2023-02-17T06:56:26.917Z,67.60
2023-02-17T07:01:29.410Z,65.60
2023-02-17T07:06:33.368Z,63.33
2023-02-17T07:11:36.156Z,65.53
2023-02-17T07:16:39.421Z,62.90
2023-02-17T07:21:44.475Z,68.70
2023-02-17T07:26:47.001Z,65.60
2023-02-17T07:31:49.636Z,64.53
2023-02-17T07:36:53.498Z,64.80
2023-02-17T07:42:00.539Z,62.63
2023-02-17T07:47:03.038Z,61.30
2023-02-17T07:52:07.278Z,63.58
2023-02-17T07:57:09.779Z,54.87
2023-02-17T08:02:12.661Z,50.00
2023-02-17T08:07:16.520Z,50.05
2023-02-17T08:12:38.502Z,46.92
2023-02-17T08:17:41.055Z,43.27
2023-02-17T08:22:44.884Z,44.42
2023-02-17T08:27:47.426Z,39.58
2023-02-17T08:32:49.919Z,39.10
2023-02-17T08:37:53.778Z,36.85
2023-02-17T08:42:56.338Z,35.45
2023-02-17T08:47:58.860Z,35.27
2023-02-17T08:53:02.694Z,33.80
2023-02-17T08:58:05.280Z,35.05
2023-02-17T09:03:08.029Z,37.40
2023-02-17T09:08:11.925Z,36.43
2023-02-17T09:13:14.647Z,37.60
2023-02-17T09:18:17.437Z,36.20
2023-02-17T09:23:21.490Z,34.40
2023-02-17T09:28:24.015Z,35.13
2023-02-17T09:33:27.240Z,30.42
2023-02-17T09:38:31.226Z,31.47
2023-02-17T09:43:34.623Z,32.63
2023-02-17T09:48:38.122Z,27.98
2023-02-17T09:53:47.991Z,28.73
2023-02-17T09:58:54.777Z,27.53
2023-02-17T10:04:02.086Z,29.80
2023-02-17T10:09:13.443Z,27.30
2023-02-17T10:14:22.495Z,27.53
2023-02-17T10:19:31.415Z,27.95
2023-02-17T10:24:35.408Z,27.25
2023-02-17T10:29:48.624Z,25.93
2023-02-17T10:35:13.844Z,28.73
2023-02-17T10:40:21.828Z,27.08
2023-02-17T10:45:30.809Z,27.50
2023-02-17T10:50:33.904Z,24.37
2023-02-17T10:55:42.589Z,25.02
2023-02-17T11:00:48.341Z,22.92
2023-02-17T11:05:56.756Z,23.53
2023-02-17T11:11:03.626Z,21.67
2023-02-17T11:16:07.619Z,21.05
2023-02-17T11:21:12.233Z,20.63
2023-02-17T11:26:23.774Z,19.53
2023-02-17T11:31:28.433Z,18.55
2023-02-17T11:36:32.590Z,19.25
2023-02-17T11:41:41.072Z,15.90
2023-02-17T11:46:53.271Z,19.08
2023-02-17T11:52:05.986Z,14.68
2023-02-17T11:57:23.370Z,11.67
2023-02-17T12:02:43.638Z,12.73
2023-02-17T12:08:04.304Z,12.45
2023-02-17T12:13:25.394Z,13.43
2023-02-17T12:18:40.842Z,12.93
2023-02-17T12:24:25.139Z,14.43
2023-02-17T12:29:42.667Z,12.85
2023-02-17T12:34:52.912Z,12.80
2023-02-17T12:39:58.797Z,12.63
2023-02-17T12:45:06.474Z,15.05
2023-02-17T12:50:20.250Z,12.17
2023-02-17T12:55:25.884Z,12.50
2023-02-17T13:00:36.023Z,10.75
2023-02-17T13:05:44.371Z,11.17
2023-02-17T13:10:46.991Z,13.43
2023-02-17T13:16:02.929Z,11.38
2023-02-17T13:21:17.824Z,11.88
2023-02-17T13:26:30.529Z,11.30
2023-02-17T13:31:46.607Z,12.07
2023-02-17T13:36:49.185Z,11.45
2023-02-17T13:41:51.688Z,11.27
2023-02-17T13:46:59.910Z,12.00
2023-02-17T13:52:10.692Z,11.52
2023-02-17T13:57:24.608Z,10.03
2023-02-17T14:02:36.043Z,12.33
2023-02-17T14:07:39.637Z,11.95
2023-02-17T14:12:42.256Z,10.50
2023-02-17T14:17:46.302Z,11.33
2023-02-17T14:23:02.590Z,8.25
2023-02-17T14:28:18.778Z,9.32
2023-02-17T14:33:24.605Z,9.67
2023-02-17T14:38:29.613Z,10.18
2023-02-17T14:43:32.108Z,9.23
2023-02-17T14:48:35.967Z,7.43
2023-02-17T14:53:40.386Z,11.87
2023-02-17T14:58:42.930Z,5.32
2023-02-17T15:03:46.919Z,19.33
2023-02-17T15:08:50.045Z,10.43
2023-02-17T15:13:52.549Z,8.02
2023-02-17T15:18:56.375Z,7.63
2023-02-17T15:24:00.530Z,11.73
2023-02-17T15:29:03.080Z,8.15
2023-02-17T15:34:14.209Z,9.85
2023-02-17T15:39:18.698Z,9.83
2023-02-17T15:44:24.850Z,9.07
2023-02-17T15:49:28.715Z,14.25
2023-02-17T15:54:31.238Z,11.35
2023-02-17T15:59:33.812Z,12.63
2023-02-17T16:04:37.621Z,11.98
2023-02-17T16:09:40.109Z,10.75
2023-02-17T16:14:42.657Z,14.57
2023-02-17T16:19:46.723Z,12.73
2023-02-17T16:24:49.303Z,12.80
2023-02-17T16:29:51.907Z,13.10
2023-02-17T16:34:55.754Z,14.57
2023-02-17T16:39:58.481Z,13.50
2023-02-17T16:45:01.584Z,16.67
2023-02-17T16:50:07.454Z,12.50
2023-02-17T16:55:16.070Z,12.95
2023-02-17T17:00:22.897Z,10.73
2023-02-17T17:05:28.995Z,16.27
2023-02-17T17:10:33.160Z,15.32
2023-02-17T17:15:36.893Z,17.60
2023-02-17T17:20:41.817Z,19.63
2023-02-17T17:25:46.602Z,16.50
2023-02-17T17:30:49.948Z,13.07
2023-02-17T17:35:55.135Z,10.82
2023-02-17T17:40:57.642Z,12.73
2023-02-17T17:46:00.226Z,17.35
2023-02-17T17:51:04.160Z,15.68
2023-02-17T17:56:08.785Z,15.10
2023-02-17T18:01:13.671Z,14.32
2023-02-17T18:06:23.358Z,19.40
2023-02-17T18:11:25.991Z,15.10
2023-02-17T18:16:31.155Z,14.40
2023-02-17T18:21:35.677Z,15.77
2023-02-17T18:26:38.218Z,14.98
2023-02-17T18:31:40.794Z,16.00
2023-02-17T18:36:44.708Z,10.23
2023-02-17T18:41:47.219Z,12.25
2023-02-17T18:46:49.715Z,14.30
2023-02-17T18:51:54.417Z,18.38
2023-02-17T18:56:56.994Z,17.42
2023-02-17T19:02:00.813Z,17.10
2023-02-17T19:07:07.065Z,13.73
2023-02-17T19:12:13.602Z,13.70
2023-02-17T19:17:18.272Z,25.10
2023-02-17T19:22:22.154Z,16.27
2023-02-17T19:27:24.694Z,10.40
2023-02-17T19:32:27.204Z,12.25
2023-02-17T19:37:31.093Z,12.77
2023-02-17T19:42:33.601Z,13.15
2023-02-17T19:47:37.233Z,12.90
2023-02-17T19:52:41.122Z,15.37
2023-02-17T19:57:43.638Z,18.60
2023-02-17T20:02:46.288Z,17.02
2023-02-17T20:07:51.036Z,14.13
2023-02-17T20:12:53.519Z,11.87
2023-02-17T20:17:56.040Z,17.95
2023-02-17T20:22:59.879Z,19.02
2023-02-17T20:28:02.403Z,15.93
2023-02-17T20:33:05.210Z,14.80
2023-02-17T20:38:09.313Z,21.73
2023-02-17T20:43:12.387Z,13.97
2023-02-17T20:48:14.919Z,18.27
2023-02-17T20:53:18.742Z,16.90
2023-02-17T20:58:21.842Z,14.82
2023-02-17T21:03:24.383Z,16.00
2023-02-17T21:08:29.452Z,11.05
2023-02-17T21:13:31.961Z,12.20
2023-02-17T21:18:34.470Z,16.10
2023-02-17T21:23:38.462Z,10.30
2023-02-17T21:28:41.348Z,8.68
2023-02-17T21:33:44.444Z,11.87
2023-02-17T21:38:48.694Z,13.93
2023-02-17T21:44:09.830Z,17.27
2023-02-17T21:49:14.361Z,5.93
2023-02-17T21:54:18.203Z,8.40
2023-02-17T21:59:20.735Z,13.32
2023-02-17T22:04:23.719Z,14.77
2023-02-17T22:09:27.641Z,14.83
2023-02-17T22:14:30.481Z,10.55
2023-02-17T22:19:32.979Z,13.32
2023-02-17T22:24:36.978Z,11.33
2023-02-17T22:29:39.463Z,13.07
2023-02-17T22:34:41.975Z,14.95
2023-02-17T22:39:45.815Z,12.43
2023-02-17T22:44:48.467Z,15.73
2023-02-17T22:49:50.997Z,15.27
2023-02-17T22:54:55.089Z,9.93
2023-02-17T22:59:57.564Z,14.80
2023-02-17T23:05:00.084Z,12.13
2023-02-17T23:10:05.549Z,13.52
2023-02-17T23:15:08.730Z,14.93
2023-02-17T23:20:12.078Z,10.77
2023-02-17T23:25:16.111Z,12.88
2023-02-17T23:30:20.849Z,13.90
2023-02-17T23:35:23.405Z,9.33
2023-02-17T23:40:27.331Z,12.77
2023-02-17T23:45:29.837Z,15.02
2023-02-17T23:50:32.647Z,12.70
2023-02-17T23:55:36.510Z,21.80
